createdAt,value
2022-11-04T00:00:58.258Z,995.57
2022-11-04T00:01:58.241Z,995.54
2022-11-04T00:02:57.711Z,995.61
2022-11-04T00:03:57.171Z,995.62
2022-11-04T00:04:57.273Z,995.67
2022-11-04T00:05:58.241Z,995.71
2022-11-04T00:06:58.143Z,995.74
2022-11-04T00:07:58.121Z,995.84
2022-11-04T00:08:58.121Z,995.98
2022-11-04T00:09:58.116Z,996.05
2022-11-04T00:10:57.205Z,996.07
2022-11-04T00:11:58.123Z,996.16
2022-11-04T00:12:58.076Z,996.16
2022-11-04T00:13:58.085Z,996.16
2022-11-04T00:14:58.058Z,996.22
2022-11-04T00:15:57.082Z,996.18
2022-11-04T00:16:58.096Z,996.15
2022-11-04T00:17:58.005Z,996.15
2022-11-04T00:18:58.036Z,996.14
2022-11-04T00:19:57.995Z,996.17
2022-11-04T00:20:58.057Z,996.20
2022-11-04T00:21:57.956Z,996.17
2022-11-04T00:22:57.975Z,996.23
2022-11-04T00:23:56.960Z,996.18
2022-11-04T00:24:57.926Z,996.14
2022-11-04T00:25:57.448Z,996.25
2022-11-04T00:26:57.908Z,996.19
2022-11-04T00:27:57.978Z,996.21
2022-11-04T00:28:58.006Z,996.26
2022-11-04T00:29:57.890Z,996.19
2022-11-04T00:30:57.877Z,996.17
2022-11-04T00:31:57.908Z,996.10
2022-11-04T00:32:57.914Z,996.14
2022-11-04T00:33:57.835Z,996.14
2022-11-04T00:34:57.963Z,996.17
2022-11-04T00:35:57.873Z,996.09
2022-11-04T00:36:56.842Z,996.06
2022-11-04T00:37:57.819Z,996.04
2022-11-04T00:38:56.529Z,995.96
2022-11-04T00:39:58.269Z,995.95
2022-11-04T00:40:55.889Z,995.98
2022-11-04T00:41:57.748Z,996.01
2022-11-04T00:42:55.849Z,995.97
2022-11-04T00:43:57.324Z,996.01
2022-11-04T00:44:57.792Z,996.13
2022-11-04T00:45:56.742Z,996.23
2022-11-04T00:46:56.453Z,996.26
2022-11-04T00:47:57.233Z,996.31
2022-11-04T00:48:55.726Z,996.31
2022-11-04T00:49:56.395Z,996.33
2022-11-04T00:50:56.643Z,996.45
2022-11-04T00:51:56.673Z,996.43
2022-11-04T00:52:57.182Z,996.53
2022-11-04T00:53:56.361Z,996.65
2022-11-04T00:54:55.681Z,996.69
2022-11-04T00:55:56.682Z,996.83
2022-11-04T00:56:57.093Z,996.86
2022-11-04T00:57:56.323Z,996.86
2022-11-04T00:58:56.288Z,996.89
2022-11-04T00:59:55.661Z,996.94
2022-11-04T01:00:57.634Z,996.95
2022-11-04T01:01:56.674Z,996.99
2022-11-04T01:02:55.616Z,997.03
2022-11-04T01:03:55.573Z,997.00
2022-11-04T01:04:57.667Z,997.03
2022-11-04T01:05:55.596Z,997.01
2022-11-04T01:06:56.227Z,997.06
2022-11-04T01:07:55.549Z,997.03
2022-11-04T01:08:56.496Z,997.12
2022-11-04T01:09:55.517Z,997.11
2022-11-04T01:10:56.548Z,997.10
2022-11-04T01:11:55.501Z,997.13
2022-11-04T01:12:55.558Z,997.15
2022-11-04T01:13:56.143Z,997.04
2022-11-04T01:14:56.129Z,997.04
2022-11-04T01:15:56.136Z,996.98
2022-11-04T01:16:56.168Z,997.05
2022-11-04T01:17:55.581Z,997.10
2022-11-04T01:18:55.422Z,997.03
2022-11-04T01:19:56.083Z,997.10
2022-11-04T01:20:55.408Z,997.02
2022-11-04T01:21:55.462Z,996.99
2022-11-04T01:22:56.040Z,997.02
2022-11-04T01:23:56.078Z,997.10
2022-11-04T01:24:56.307Z,997.14
2022-11-04T01:25:55.373Z,997.12
2022-11-04T01:26:55.361Z,997.18
2022-11-04T01:27:55.993Z,997.10
2022-11-04T01:28:55.966Z,997.10
2022-11-04T01:29:55.303Z,997.12
2022-11-04T01:30:55.952Z,997.13
2022-11-04T01:31:55.332Z,997.14
2022-11-04T01:32:55.961Z,997.15
2022-11-04T01:33:57.202Z,997.27
2022-11-04T01:34:56.723Z,997.26
2022-11-04T01:35:56.707Z,997.29
2022-11-04T01:36:55.995Z,997.28
2022-11-04T01:37:55.893Z,997.25
2022-11-04T01:38:55.872Z,997.22
2022-11-04T01:39:55.863Z,997.19
2022-11-04T01:40:55.294Z,997.21
2022-11-04T01:41:55.335Z,997.34
2022-11-04T01:42:55.827Z,997.30
2022-11-04T01:43:55.823Z,997.41
2022-11-04T01:44:56.063Z,997.35
2022-11-04T01:45:55.868Z,997.42
2022-11-04T01:46:56.085Z,997.35
2022-11-04T01:47:55.104Z,997.38
2022-11-04T01:48:55.765Z,997.42
2022-11-04T01:49:55.133Z,997.44
2022-11-04T01:50:56.009Z,997.39
2022-11-04T01:51:55.727Z,997.39
2022-11-04T01:52:55.743Z,997.43
2022-11-04T01:53:55.339Z,997.39
2022-11-04T01:54:55.059Z,997.35
2022-11-04T01:55:55.027Z,997.41
2022-11-04T01:56:55.672Z,997.33
2022-11-04T01:57:55.037Z,997.43
2022-11-04T01:58:55.641Z,997.38
2022-11-04T01:59:55.058Z,997.38
2022-11-04T02:00:55.695Z,997.42
2022-11-04T02:01:55.766Z,997.41
2022-11-04T02:02:55.610Z,997.45
2022-11-04T02:03:54.965Z,997.49
2022-11-04T02:04:55.041Z,997.52
2022-11-04T02:05:55.583Z,997.58
2022-11-04T02:06:54.910Z,997.61
2022-11-04T02:07:54.891Z,997.61
2022-11-04T02:08:55.544Z,997.63
2022-11-04T02:09:54.872Z,997.67
2022-11-04T02:10:54.942Z,997.65
2022-11-04T02:11:55.519Z,997.61
2022-11-04T02:12:55.007Z,997.61
2022-11-04T02:13:54.813Z,997.64
2022-11-04T02:14:56.246Z,997.61
2022-11-04T02:15:55.475Z,997.57
2022-11-04T02:16:55.442Z,997.71
2022-11-04T02:17:55.452Z,997.70
2022-11-04T02:18:54.801Z,997.74
2022-11-04T02:19:54.804Z,997.73
2022-11-04T02:20:55.423Z,997.82
2022-11-04T02:21:55.419Z,997.78
2022-11-04T02:22:54.934Z,997.75
2022-11-04T02:23:55.394Z,997.67
2022-11-04T02:24:55.371Z,997.73
2022-11-04T02:25:55.632Z,997.74
2022-11-04T02:26:54.665Z,997.77
2022-11-04T02:27:54.768Z,997.80
2022-11-04T02:28:54.684Z,997.79
2022-11-04T02:29:54.667Z,997.83
2022-11-04T02:30:56.091Z,997.80
2022-11-04T02:31:55.324Z,997.87
2022-11-04T02:32:54.692Z,997.89
2022-11-04T02:33:55.570Z,997.93
2022-11-04T02:34:55.345Z,997.90
2022-11-04T02:35:55.260Z,997.83
2022-11-04T02:36:54.568Z,997.88
2022-11-04T02:37:54.590Z,997.91
2022-11-04T02:38:54.547Z,997.89
2022-11-04T02:39:55.269Z,997.87
2022-11-04T02:40:55.195Z,997.92
2022-11-04T02:41:54.592Z,997.85
2022-11-04T02:42:54.752Z,997.91
2022-11-04T02:43:55.512Z,997.91
2022-11-04T02:44:54.493Z,997.93
2022-11-04T02:45:54.494Z,997.96
2022-11-04T02:46:55.143Z,997.95
2022-11-04T02:47:54.460Z,997.94
2022-11-04T02:48:55.370Z,998.01
2022-11-04T02:49:55.122Z,998.04
2022-11-04T02:50:55.099Z,998.03
2022-11-04T02:51:55.872Z,998.02
2022-11-04T02:52:54.432Z,998.10
2022-11-04T02:53:55.076Z,998.11
2022-11-04T02:54:55.064Z,998.15
2022-11-04T02:55:54.427Z,998.12
2022-11-04T02:56:54.361Z,998.17
2022-11-04T02:57:54.356Z,998.20
2022-11-04T02:58:55.073Z,998.21
2022-11-04T02:59:55.004Z,998.26
2022-11-04T03:00:55.059Z,998.19
2022-11-04T03:01:55.067Z,998.17
2022-11-04T03:02:56.225Z,998.19
2022-11-04T03:03:54.963Z,998.21
2022-11-04T03:04:54.755Z,998.16
2022-11-04T03:05:54.942Z,998.24
2022-11-04T03:06:55.696Z,998.17
2022-11-04T03:07:54.913Z,998.16
2022-11-04T03:08:54.893Z,998.22
2022-11-04T03:09:54.885Z,998.17
2022-11-04T03:10:54.849Z,998.17
2022-11-04T03:11:54.867Z,998.23
2022-11-04T03:12:54.166Z,998.24
2022-11-04T03:13:54.846Z,998.19
2022-11-04T03:14:54.829Z,998.23
2022-11-04T03:15:54.808Z,998.21
2022-11-04T03:16:54.806Z,998.21
2022-11-04T03:17:54.799Z,998.22
2022-11-04T03:18:54.098Z,998.22
2022-11-04T03:19:54.145Z,998.26
2022-11-04T03:20:54.109Z,998.20
2022-11-04T03:21:54.766Z,998.21
2022-11-04T03:22:54.079Z,998.22
2022-11-04T03:23:54.739Z,998.23
2022-11-04T03:24:54.061Z,998.20
2022-11-04T03:25:54.179Z,998.26
2022-11-04T03:26:54.699Z,998.26
2022-11-04T03:27:54.692Z,998.32
2022-11-04T03:28:54.681Z,998.34
2022-11-04T03:29:54.679Z,998.35
2022-11-04T03:30:54.662Z,998.34
2022-11-04T03:31:54.045Z,998.35
2022-11-04T03:32:53.950Z,998.35
2022-11-04T03:33:53.975Z,998.44
2022-11-04T03:34:54.631Z,998.43
2022-11-04T03:35:54.619Z,998.46
2022-11-04T03:36:53.912Z,998.40
2022-11-04T03:37:53.932Z,998.41
2022-11-04T03:38:54.570Z,998.44
2022-11-04T03:39:53.892Z,998.43
2022-11-04T03:40:53.890Z,998.49
2022-11-04T03:41:53.866Z,998.48
2022-11-04T03:42:54.536Z,998.49
2022-11-04T03:43:55.392Z,998.49
2022-11-04T03:44:53.849Z,998.51
2022-11-04T03:45:54.505Z,998.53
2022-11-04T03:46:53.880Z,998.47
2022-11-04T03:47:54.472Z,998.47
2022-11-04T03:48:53.784Z,998.50
2022-11-04T03:49:53.805Z,998.47
2022-11-04T03:50:53.778Z,998.59
2022-11-04T03:51:53.833Z,998.59
2022-11-04T03:52:53.747Z,998.56
2022-11-04T03:53:54.417Z,998.58
2022-11-04T03:54:54.396Z,998.56
2022-11-04T03:55:54.378Z,998.57
2022-11-04T03:56:55.129Z,998.58
2022-11-04T03:57:54.366Z,998.62
2022-11-04T03:58:54.520Z,998.58
2022-11-04T03:59:53.663Z,998.61
2022-11-04T04:00:53.685Z,998.66
2022-11-04T04:01:54.452Z,998.67
2022-11-04T04:02:53.628Z,998.65
2022-11-04T04:03:54.537Z,998.66
2022-11-04T04:04:53.948Z,998.66
2022-11-04T04:05:54.278Z,998.69
2022-11-04T04:06:53.588Z,998.66
2022-11-04T04:07:54.332Z,998.66
2022-11-04T04:08:54.255Z,998.64
2022-11-04T04:09:53.603Z,998.69
2022-11-04T04:10:53.538Z,998.69
2022-11-04T04:11:54.218Z,998.69
2022-11-04T04:12:54.449Z,998.71
2022-11-04T04:13:54.470Z,998.70
2022-11-04T04:14:54.194Z,998.78
2022-11-04T04:15:53.489Z,998.70
2022-11-04T04:16:54.160Z,998.79
2022-11-04T04:17:54.162Z,998.71
2022-11-04T04:18:57.434Z,998.75
2022-11-04T04:19:54.122Z,998.77
2022-11-04T04:20:53.422Z,998.71
2022-11-04T04:21:54.861Z,998.72
2022-11-04T04:22:54.101Z,998.74
2022-11-04T04:23:53.401Z,998.76
2022-11-04T04:24:54.077Z,998.80
2022-11-04T04:25:54.043Z,998.85
2022-11-04T04:26:53.352Z,998.85
2022-11-04T04:27:54.684Z,998.87
2022-11-04T04:28:54.275Z,998.86
2022-11-04T04:29:54.031Z,998.92
2022-11-04T04:30:59.156Z,998.90
2022-11-04T04:31:54.973Z,998.97
2022-11-04T04:32:53.297Z,998.99
2022-11-04T04:33:53.966Z,998.99
2022-11-04T04:34:53.954Z,998.99
2022-11-04T04:35:53.953Z,999.03
2022-11-04T04:36:53.952Z,998.98
2022-11-04T04:37:54.300Z,999.03
2022-11-04T04:38:53.236Z,999.08
2022-11-04T04:39:53.904Z,999.04
2022-11-04T04:40:53.944Z,999.05
2022-11-04T04:41:53.255Z,999.07
2022-11-04T04:42:53.925Z,999.06
2022-11-04T04:43:53.848Z,998.99
2022-11-04T04:44:54.139Z,999.04
2022-11-04T04:45:53.177Z,999.05
2022-11-04T04:46:53.158Z,999.04
2022-11-04T04:47:53.809Z,999.05
2022-11-04T04:48:53.799Z,999.04
2022-11-04T04:49:53.226Z,998.99
2022-11-04T04:50:53.791Z,999.02
2022-11-04T04:51:53.768Z,999.09
2022-11-04T04:52:53.749Z,999.12
2022-11-04T04:53:53.781Z,999.07
2022-11-04T04:54:54.408Z,999.15
2022-11-04T04:55:53.148Z,999.11
2022-11-04T04:56:53.710Z,999.10
2022-11-04T04:57:53.698Z,999.11
2022-11-04T04:58:53.754Z,999.11
2022-11-04T04:59:53.035Z,999.13
2022-11-04T05:00:53.337Z,999.13
2022-11-04T05:01:53.758Z,999.14
2022-11-04T05:02:53.062Z,999.16
2022-11-04T05:03:53.873Z,999.17
2022-11-04T05:04:53.623Z,999.18
2022-11-04T05:05:56.278Z,999.18
2022-11-04T05:06:54.016Z,999.19
2022-11-04T05:07:53.590Z,999.22
2022-11-04T05:08:52.891Z,999.23
2022-11-04T05:09:53.574Z,999.26
2022-11-04T05:10:53.564Z,999.33
2022-11-04T05:11:52.881Z,999.36
2022-11-04T05:12:53.903Z,999.38
2022-11-04T05:13:52.867Z,999.39
2022-11-04T05:14:53.505Z,999.44
2022-11-04T05:15:53.497Z,999.41
2022-11-04T05:16:53.487Z,999.42
2022-11-04T05:17:53.726Z,999.42
2022-11-04T05:18:52.799Z,999.41
2022-11-04T05:19:53.468Z,999.45
2022-11-04T05:20:53.442Z,999.45
2022-11-04T05:21:53.433Z,999.42
2022-11-04T05:22:52.738Z,999.40
2022-11-04T05:23:53.417Z,999.45
2022-11-04T05:24:53.387Z,999.39
2022-11-04T05:25:53.427Z,999.46
2022-11-04T05:26:53.377Z,999.44
2022-11-04T05:27:52.680Z,999.45
2022-11-04T05:28:53.365Z,999.49
2022-11-04T05:29:53.358Z,999.54
2022-11-04T05:30:52.679Z,999.56
2022-11-04T05:31:53.321Z,999.57
2022-11-04T05:32:53.307Z,999.56
2022-11-04T05:33:52.607Z,999.58
2022-11-04T05:34:52.611Z,999.59
2022-11-04T05:35:53.293Z,999.61
2022-11-04T05:36:52.701Z,999.66
2022-11-04T05:37:53.258Z,999.66
2022-11-04T05:38:53.249Z,999.70
2022-11-04T05:39:52.539Z,999.66
2022-11-04T05:40:53.229Z,999.70
2022-11-04T05:41:52.543Z,999.74
2022-11-04T05:42:52.660Z,999.72
2022-11-04T05:43:52.509Z,999.78
2022-11-04T05:44:52.581Z,999.79
2022-11-04T05:45:52.481Z,999.83
2022-11-04T05:46:52.522Z,999.90
2022-11-04T05:47:53.159Z,999.82
2022-11-04T05:48:52.571Z,999.85
2022-11-04T05:49:53.131Z,999.85
2022-11-04T05:50:53.127Z,999.85
2022-11-04T05:51:52.429Z,999.87
2022-11-04T05:52:52.427Z,999.88
2022-11-04T05:53:52.415Z,999.90
2022-11-04T05:54:52.440Z,999.89
2022-11-04T05:55:53.075Z,1000.00
2022-11-04T05:56:53.058Z,999.93
2022-11-04T05:57:53.043Z,999.98
2022-11-04T05:58:52.359Z,1000.02
2022-11-04T05:59:53.015Z,1000.00
2022-11-04T06:00:53.003Z,1000.05
2022-11-04T06:01:53.095Z,1000.04
2022-11-04T06:02:53.064Z,1000.03
2022-11-04T06:03:52.296Z,1000.03
2022-11-04T06:04:52.975Z,1000.07
2022-11-04T06:05:52.965Z,1000.09
2022-11-04T06:06:52.956Z,1000.06
2022-11-04T06:07:52.254Z,1000.07
2022-11-04T06:08:52.926Z,1000.09
2022-11-04T06:09:52.262Z,1000.13
2022-11-04T06:10:52.916Z,1000.18
2022-11-04T06:11:52.217Z,1000.19
2022-11-04T06:12:53.006Z,1000.22
2022-11-04T06:13:52.885Z,1000.24
2022-11-04T06:14:52.189Z,1000.27
2022-11-04T06:15:52.158Z,1000.27
2022-11-04T06:16:52.845Z,1000.28
2022-11-04T06:17:52.836Z,1000.26
2022-11-04T06:18:52.907Z,1000.26
2022-11-04T06:19:52.129Z,1000.30
2022-11-04T06:20:52.109Z,1000.32
2022-11-04T06:21:52.795Z,1000.35
2022-11-04T06:22:52.771Z,1000.41
2022-11-04T06:23:52.759Z,1000.36
2022-11-04T06:24:52.763Z,1000.46
2022-11-04T06:25:52.740Z,1000.38
2022-11-04T06:26:52.727Z,1000.39
2022-11-04T06:27:52.733Z,1000.41
2022-11-04T06:28:52.751Z,1000.47
2022-11-04T06:29:52.692Z,1000.50
2022-11-04T06:30:52.790Z,1000.53
2022-11-04T06:31:52.671Z,1000.45
2022-11-04T06:32:52.663Z,1000.48
2022-11-04T06:33:51.981Z,1000.50
2022-11-04T06:34:51.971Z,1000.50
2022-11-04T06:35:52.632Z,1000.51
2022-11-04T06:36:52.611Z,1000.52
2022-11-04T06:37:51.925Z,1000.50
2022-11-04T06:38:52.608Z,1000.48
2022-11-04T06:39:52.584Z,1000.54
2022-11-04T06:40:52.592Z,1000.52
2022-11-04T06:41:53.703Z,1000.51
2022-11-04T06:42:53.314Z,1000.48
2022-11-04T06:43:51.864Z,1000.51
2022-11-04T06:44:52.534Z,1000.50
2022-11-04T06:45:52.525Z,1000.49
2022-11-04T06:46:51.833Z,1000.53
2022-11-04T06:47:51.916Z,1000.52
2022-11-04T06:48:51.837Z,1000.54
2022-11-04T06:49:51.809Z,1000.62
2022-11-04T06:50:51.796Z,1000.63
2022-11-04T06:51:52.459Z,1000.60
2022-11-04T06:52:52.449Z,1000.61
2022-11-04T06:53:52.434Z,1000.61
2022-11-04T06:54:51.796Z,1000.63
2022-11-04T06:55:52.417Z,1000.63
2022-11-04T06:56:51.734Z,1000.63
2022-11-04T06:57:52.647Z,1000.67
2022-11-04T06:58:52.402Z,1000.65
2022-11-04T06:59:52.376Z,1000.65
2022-11-04T07:00:52.432Z,1000.63
2022-11-04T07:01:52.523Z,1000.63
2022-11-04T07:02:52.381Z,1000.63
2022-11-04T07:03:51.645Z,1000.65
2022-11-04T07:04:52.343Z,1000.64
2022-11-04T07:05:52.316Z,1000.62
2022-11-04T07:06:52.286Z,1000.65
2022-11-04T07:07:51.617Z,1000.71
2022-11-04T07:08:51.595Z,1000.67
2022-11-04T07:09:51.585Z,1000.77
2022-11-04T07:10:51.590Z,1000.76
2022-11-04T07:11:52.252Z,1000.84
2022-11-04T07:12:51.618Z,1000.82
2022-11-04T07:13:51.530Z,1000.88
2022-11-04T07:14:52.211Z,1000.87
2022-11-04T07:15:52.202Z,1000.90
2022-11-04T07:16:52.194Z,1000.96
2022-11-04T07:17:52.181Z,1001.00
2022-11-04T07:18:52.173Z,1000.99
2022-11-04T07:19:52.153Z,1001.04
2022-11-04T07:20:51.480Z,1001.04
2022-11-04T07:21:52.142Z,1001.07
2022-11-04T07:22:52.131Z,1001.06
2022-11-04T07:23:52.123Z,1001.07
2022-11-04T07:24:51.535Z,1001.06
2022-11-04T07:25:52.095Z,1001.10
2022-11-04T07:26:51.497Z,1001.09
2022-11-04T07:27:52.074Z,1001.13
2022-11-04T07:28:51.393Z,1001.13
2022-11-04T07:29:52.315Z,1001.10
2022-11-04T07:30:52.037Z,1001.07
2022-11-04T07:31:52.035Z,1001.17
2022-11-04T07:32:52.016Z,1001.12
2022-11-04T07:33:52.014Z,1001.16
2022-11-04T07:34:51.328Z,1001.14
2022-11-04T07:35:55.365Z,1001.18
2022-11-04T07:36:52.955Z,1001.16
2022-11-04T07:37:51.966Z,1001.22
2022-11-04T07:38:51.958Z,1001.24
2022-11-04T07:39:51.948Z,1001.25
2022-11-04T07:40:51.926Z,1001.30
2022-11-04T07:41:54.274Z,1001.33
2022-11-04T07:42:52.259Z,1001.33
2022-11-04T07:43:51.258Z,1001.33
2022-11-04T07:44:51.891Z,1001.30
2022-11-04T07:45:51.200Z,1001.30
2022-11-04T07:46:51.188Z,1001.28
2022-11-04T07:47:51.194Z,1001.31
2022-11-04T07:48:51.197Z,1001.23
2022-11-04T07:49:51.906Z,1001.26
2022-11-04T07:50:51.820Z,1001.29
2022-11-04T07:51:51.136Z,1001.26
2022-11-04T07:52:51.121Z,1001.33
2022-11-04T07:53:51.790Z,1001.34
2022-11-04T07:54:51.760Z,1001.37
2022-11-04T07:55:51.760Z,1001.40
2022-11-04T07:56:51.763Z,1001.45
2022-11-04T07:57:51.080Z,1001.45
2022-11-04T07:58:51.733Z,1001.51
2022-11-04T07:59:51.060Z,1001.55
2022-11-04T08:00:51.062Z,1001.56
2022-11-04T08:01:51.745Z,1001.56
2022-11-04T08:02:51.765Z,1001.59
2022-11-04T08:03:50.993Z,1001.57
2022-11-04T08:04:51.663Z,1001.61
2022-11-04T08:05:51.927Z,1001.67
2022-11-04T08:06:51.633Z,1001.67
2022-11-04T08:07:50.943Z,1001.67
2022-11-04T08:08:51.655Z,1001.66
2022-11-04T08:09:50.933Z,1001.70
2022-11-04T08:10:50.914Z,1001.71
2022-11-04T08:11:51.599Z,1001.75
2022-11-04T08:12:51.944Z,1001.75
2022-11-04T08:13:50.878Z,1001.78
2022-11-04T08:14:51.562Z,1001.82
2022-11-04T08:15:50.877Z,1001.85
2022-11-04T08:16:50.846Z,1001.81
2022-11-04T08:17:50.836Z,1001.86
2022-11-04T08:18:50.876Z,1001.85
2022-11-04T08:19:51.498Z,1001.92
2022-11-04T08:20:50.817Z,1001.89
2022-11-04T08:21:50.807Z,1001.89
2022-11-04T08:22:51.471Z,1001.86
2022-11-04T08:23:51.464Z,1001.86
2022-11-04T08:24:51.509Z,1001.84
2022-11-04T08:25:51.442Z,1001.80
2022-11-04T08:26:51.427Z,1001.82
2022-11-04T08:27:52.834Z,1001.84
2022-11-04T08:28:51.408Z,1001.82
2022-11-04T08:29:51.399Z,1001.79
2022-11-04T08:30:51.382Z,1001.84
2022-11-04T08:31:51.379Z,1001.84
2022-11-04T08:32:51.371Z,1001.87
2022-11-04T08:33:51.350Z,1001.90
2022-11-04T08:34:50.668Z,1001.97
2022-11-04T08:35:51.335Z,1001.96
2022-11-04T08:36:51.402Z,1001.99
2022-11-04T08:37:50.640Z,1002.01
2022-11-04T08:38:51.293Z,1002.00
2022-11-04T08:39:51.283Z,1002.03
2022-11-04T08:40:53.307Z,1002.03
2022-11-04T08:41:53.478Z,1002.04
2022-11-04T08:42:51.260Z,1002.04
2022-11-04T08:43:51.250Z,1002.03
2022-11-04T08:44:50.562Z,1002.02
2022-11-04T08:45:51.223Z,1002.00
2022-11-04T08:46:50.523Z,1001.97
2022-11-04T08:47:50.653Z,1001.92
2022-11-04T08:48:50.539Z,1002.04
2022-11-04T08:49:50.513Z,1002.00
2022-11-04T08:50:50.503Z,1001.94
2022-11-04T08:51:51.155Z,1001.93
2022-11-04T08:52:51.153Z,1001.87
2022-11-04T08:53:50.485Z,1001.97
2022-11-04T08:54:56.227Z,1001.95
2022-11-04T08:55:51.792Z,1001.96
2022-11-04T08:56:50.435Z,1001.91
2022-11-04T08:57:51.096Z,1001.96
2022-11-04T08:58:50.407Z,1002.00
2022-11-04T08:59:51.136Z,1001.99
2022-11-04T09:00:51.070Z,1002.01
2022-11-04T09:01:50.421Z,1002.01
2022-11-04T09:02:50.375Z,1002.05
2022-11-04T09:03:50.422Z,1002.11
2022-11-04T09:04:51.022Z,1002.11
2022-11-04T09:05:51.067Z,1002.14
2022-11-04T09:06:50.309Z,1002.20
2022-11-04T09:07:50.316Z,1002.24
2022-11-04T09:08:50.981Z,1002.24
2022-11-04T09:09:50.969Z,1002.31
2022-11-04T09:10:50.959Z,1002.35
2022-11-04T09:11:50.941Z,1002.42
2022-11-04T09:12:50.259Z,1002.38
2022-11-04T09:13:50.921Z,1002.48
2022-11-04T09:14:50.909Z,1002.71
2022-11-04T09:15:50.901Z,1002.38
2022-11-04T09:16:51.644Z,1002.70
2022-11-04T09:17:50.863Z,1002.41
2022-11-04T09:18:50.180Z,1002.42
2022-11-04T09:19:50.857Z,1002.28
2022-11-04T09:20:50.182Z,1002.32
2022-11-04T09:21:50.144Z,1002.64
2022-11-04T09:22:51.275Z,1002.37
2022-11-04T09:23:50.810Z,1002.66
2022-11-04T09:24:50.119Z,1002.69
2022-11-04T09:25:50.123Z,1002.65
2022-11-04T09:26:50.102Z,1002.58
2022-11-04T09:27:50.763Z,1002.55
2022-11-04T09:28:50.756Z,1002.47
2022-11-04T09:29:50.495Z,1002.45
2022-11-04T09:30:50.909Z,1002.42
2022-11-04T09:31:50.727Z,1002.39
2022-11-04T09:32:52.892Z,1002.35
2022-11-04T09:33:50.697Z,1002.34
2022-11-04T09:34:50.685Z,1002.36
2022-11-04T09:35:50.748Z,1002.39
2022-11-04T09:36:49.968Z,1002.38
2022-11-04T09:37:49.989Z,1002.33
2022-11-04T09:38:50.089Z,1002.30
2022-11-04T09:39:53.869Z,1002.30
2022-11-04T09:40:50.877Z,1002.31
2022-11-04T09:41:49.960Z,1002.27
2022-11-04T09:42:49.917Z,1002.24
2022-11-04T09:43:49.936Z,1002.22
2022-11-04T09:45:19.339Z,1002.21
2022-11-04T09:45:51.853Z,1002.09
2022-11-04T09:46:50.559Z,1002.09
2022-11-04T09:47:50.622Z,1002.06
2022-11-04T09:48:49.872Z,1002.04
2022-11-04T09:49:50.523Z,1002.05
2022-11-04T09:50:49.832Z,1002.15
2022-11-04T09:51:55.846Z,1002.18
2022-11-04T09:52:50.741Z,1002.24
2022-11-04T09:53:50.471Z,1002.22
2022-11-04T09:54:50.478Z,1002.30
2022-11-04T09:55:50.462Z,1002.32
2022-11-04T09:56:50.453Z,1002.35
2022-11-04T09:57:50.494Z,1002.41
2022-11-04T09:58:49.744Z,1002.45
2022-11-04T09:59:50.483Z,1002.41
2022-11-04T10:00:50.475Z,1002.44
2022-11-04T10:01:50.512Z,1002.37
2022-11-04T10:02:50.394Z,1002.43
2022-11-04T10:03:49.692Z,1002.43
2022-11-04T10:04:51.185Z,1002.39
2022-11-04T10:05:49.785Z,1002.34
2022-11-04T10:06:50.348Z,1002.29
2022-11-04T10:07:50.334Z,1002.27
2022-11-04T10:08:49.635Z,1002.25
2022-11-04T10:09:49.626Z,1002.22
2022-11-04T10:10:49.628Z,1002.26
2022-11-04T10:11:49.728Z,1002.23
2022-11-04T10:12:50.280Z,1002.28
2022-11-04T10:13:50.257Z,1002.26
2022-11-04T10:14:49.548Z,1002.21
2022-11-04T10:15:49.580Z,1002.26
2022-11-04T10:16:50.227Z,1002.29
2022-11-04T10:17:49.571Z,1002.30
2022-11-04T10:18:49.548Z,1002.33
2022-11-04T10:19:50.196Z,1002.35
2022-11-04T10:20:50.188Z,1002.34
2022-11-04T10:21:50.929Z,1002.36
2022-11-04T10:22:50.169Z,1002.46
2022-11-04T10:23:50.149Z,1002.46
2022-11-04T10:24:50.896Z,1002.49
2022-11-04T10:25:49.690Z,1002.46
2022-11-04T10:26:49.433Z,1002.45
2022-11-04T10:27:50.112Z,1002.46
2022-11-04T10:28:49.455Z,1002.46
2022-11-04T10:29:50.076Z,1002.37
2022-11-04T10:30:50.074Z,1002.42
2022-11-04T10:31:50.078Z,1002.40
2022-11-04T10:32:49.368Z,1002.41
2022-11-04T10:33:50.054Z,1002.41
2022-11-04T10:34:49.367Z,1002.40
2022-11-04T10:35:49.383Z,1002.41
2022-11-04T10:36:50.014Z,1002.42
2022-11-04T10:37:50.005Z,1002.44
2022-11-04T10:38:49.304Z,1002.47
2022-11-04T10:39:49.315Z,1002.50
2022-11-04T10:40:49.277Z,1002.59
2022-11-04T10:41:49.376Z,1002.61
2022-11-04T10:42:49.286Z,1002.61
2022-11-04T10:43:49.943Z,1002.71
2022-11-04T10:44:49.924Z,1002.69
2022-11-04T10:45:49.917Z,1002.69
2022-11-04T10:46:49.896Z,1002.70
2022-11-04T10:47:49.879Z,1002.65
2022-11-04T10:48:49.197Z,1002.64
2022-11-04T10:50:14.026Z,1002.63
2022-11-04T10:50:51.625Z,1002.60
2022-11-04T10:51:49.846Z,1002.56
2022-11-04T10:52:49.190Z,1002.52
2022-11-04T10:53:49.891Z,1002.47
2022-11-04T10:54:49.120Z,1002.48
2022-11-04T10:55:49.142Z,1002.47
2022-11-04T10:56:49.155Z,1002.53
2022-11-04T10:57:49.783Z,1002.56
2022-11-04T10:58:49.770Z,1002.58
2022-11-04T10:59:49.826Z,1002.60
2022-11-04T11:00:49.822Z,1002.63
2022-11-04T11:01:49.815Z,1002.67
2022-11-04T11:02:49.724Z,1002.66
2022-11-04T11:03:49.712Z,1002.67
2022-11-04T11:04:49.702Z,1002.68
2022-11-04T11:05:49.676Z,1002.71
2022-11-04T11:06:49.682Z,1002.72
2022-11-04T11:07:49.672Z,1002.71
2022-11-04T11:08:49.672Z,1002.77
2022-11-04T11:09:53.493Z,1002.76
2022-11-04T11:10:50.625Z,1002.78
2022-11-04T11:11:49.624Z,1002.81
2022-11-04T11:12:51.443Z,1002.78
2022-11-04T11:13:48.933Z,1002.83
2022-11-04T11:14:48.907Z,1002.84
2022-11-04T11:15:48.928Z,1002.85
2022-11-04T11:16:49.564Z,1002.91
2022-11-04T11:17:50.314Z,1002.90
2022-11-04T11:18:48.866Z,1002.93
2022-11-04T11:19:49.549Z,1002.93
2022-11-04T11:20:49.537Z,1002.92
2022-11-04T11:21:48.865Z,1002.91
2022-11-04T11:22:49.588Z,1002.92
2022-11-04T11:23:48.815Z,1002.93
2022-11-04T11:24:49.493Z,1002.95
2022-11-04T11:25:49.482Z,1002.99
2022-11-04T11:26:49.466Z,1002.96
2022-11-04T11:27:49.461Z,1003.02
2022-11-04T11:28:52.154Z,1003.03
2022-11-04T11:29:51.178Z,1003.07
2022-11-04T11:30:49.433Z,1003.02
2022-11-04T11:31:48.811Z,1003.04
2022-11-04T11:32:49.413Z,1003.02
2022-11-04T11:33:49.392Z,1002.96
2022-11-04T11:34:48.824Z,1002.97
2022-11-04T11:35:48.700Z,1002.95
2022-11-04T11:36:49.370Z,1002.94
2022-11-04T11:37:49.369Z,1002.90
2022-11-04T11:38:49.332Z,1002.89
2022-11-04T11:39:49.610Z,1002.92
2022-11-04T11:41:18.369Z,1002.90
2022-11-04T11:41:53.317Z,1002.90
2022-11-04T11:42:48.612Z,1002.90
2022-11-04T11:43:48.653Z,1002.93
2022-11-04T11:44:49.273Z,1002.93
2022-11-04T11:45:49.270Z,1002.99
2022-11-04T11:46:49.513Z,1002.96
2022-11-04T11:47:49.427Z,1002.99
2022-11-04T11:48:49.466Z,1003.04
2022-11-04T11:49:49.215Z,1003.05
2022-11-04T11:50:50.487Z,1003.05
2022-11-04T11:51:49.197Z,1003.11
2022-11-04T11:52:50.476Z,1003.03
2022-11-04T11:53:49.165Z,1003.06
2022-11-04T11:54:50.426Z,1003.05
2022-11-04T11:55:48.475Z,1003.09
2022-11-04T11:57:12.474Z,1003.08
2022-11-04T12:00:52.021Z,1003.09
2022-11-04T12:01:50.199Z,1003.08
2022-11-04T12:02:49.256Z,1003.09
2022-11-04T12:09:49.990Z,1003.13
2022-11-04T12:10:51.647Z,1003.19
2022-11-04T12:11:50.258Z,1003.17
2022-11-04T12:12:50.281Z,1003.25
2022-11-04T12:13:50.214Z,1003.23
2022-11-04T12:14:49.415Z,1003.25
2022-11-04T12:15:50.201Z,1003.23
2022-11-04T12:16:50.183Z,1003.26
2022-11-04T12:17:49.142Z,1003.27
2022-11-04T12:18:50.157Z,1003.29
2022-11-04T12:19:50.665Z,1003.27
2022-11-04T12:20:50.257Z,1003.26
2022-11-04T12:21:50.144Z,1003.25
2022-11-04T12:22:49.115Z,1003.21
2022-11-04T12:23:50.104Z,1003.19
2022-11-04T12:24:49.023Z,1003.23
2022-11-04T12:25:50.077Z,1003.22